Time;durP1;ratioP1;P1;durP2;ratioP2;P2;SDS_P1;SDS_P2;PMS_P1;PMS_P2;Temp;Humidity;BMP_temperature;BMP_pressure;BME280_temperature;BME280_humidity;BME280_pressure;Samples;Min_cycle;Max_cycle;Signal;HPM_P1;HPM_P2
2023/10/09 00:01:01;;;;;;;0.10;0.10;;;18.60;49.00;;;;;;5033723;28;20620;-54
2023/10/09 00:03:33;;;;;;;0.10;0.10;;;18.60;49.10;;;;;;5033479;28;20592;-49
2023/10/09 00:06:07;;;;;;;0.00;0.00;;;18.70;49.10;;;;;;5033595;28;20200;-47
2023/10/09 00:08:39;;;;;;;0.10;0.10;;;18.70;49.10;;;;;;5032176;28;20216;-53
2023/10/09 00:11:16;;;;;;;0.00;0.00;;;18.70;49.00;;;;;;5032939;28;20292;-52
2023/10/09 00:13:52;;;;;;;0.00;0.00;;;18.80;49.10;;;;;;5032252;28;20307;-54
2023/10/09 00:16:36;;;;;;;0.05;0.05;;;18.80;49.10;;;;;;5033348;28;20294;-50
2023/10/09 00:19:19;;;;;;;0.08;0.08;;;18.80;49.20;;;;;;5033812;28;20195;-54
2023/10/09 00:21:58;;;;;;;0.05;0.05;;;18.90;49.20;;;;;;5033768;28;20305;-44
2023/10/09 00:24:30;;;;;;;0.10;0.10;;;18.90;49.30;;;;;;5032773;28;20583;-54
2023/10/09 00:27:11;;;;;;;0.20;0.20;;;18.90;49.40;;;;;;5030263;28;20538;-53
2023/10/09 00:29:45;;;;;;;0.10;0.10;;;19.00;49.40;;;;;;5042189;28;20502;-57
2023/10/09 00:32:22;;;;;;;0.00;0.00;;;19.00;49.40;;;;;;5040678;28;20565;-50
2023/10/09 00:34:58;;;;;;;0.10;0.10;;;19.10;49.50;;;;;;5030649;28;20572;-49
2023/10/09 00:37:34;;;;;;;0.05;0.05;;;19.10;49.50;;;;;;5022069;28;20540;-49
2023/10/09 00:40:12;;;;;;;0.10;0.10;;;19.10;49.50;;;;;;5011854;28;20536;-48
2023/10/09 00:42:43;;;;;;;0.00;0.00;;;19.10;49.60;;;;;;5013279;28;20280;-55
2023/10/09 00:45:24;;;;;;;0.10;0.10;;;19.20;49.60;;;;;;5012926;28;20563;-56
2023/10/09 00:48:01;;;;;;;0.10;0.10;;;19.20;49.70;;;;;;5029001;28;20611;-48
2023/10/09 00:50:35;;;;;;;0.00;0.00;;;19.30;49.80;;;;;;5032317;28;20545;-50
2023/10/09 00:53:12;;;;;;;0.10;0.10;;;19.30;49.70;;;;;;5032120;28;20279;-56
2023/10/09 00:55:55;;;;;;;0.10;0.10;;;19.30;49.60;;;;;;5032802;28;20300;-55
2023/10/09 00:58:26;;;;;;;0.10;0.10;;;19.40;49.60;;;;;;5032843;28;20540;-52
2023/10/09 01:00:59;;;;;;;0.10;0.10;;;19.40;49.60;;;;;;5032254;28;20211;-56
2023/10/09 01:03:33;;;;;;;0.10;0.10;;;19.40;49.60;;;;;;5031567;28;20654;-55
2023/10/09 01:06:16;;;;;;;0.10;0.10;;;19.50;49.70;;;;;;5032481;28;20585;-56
2023/10/09 01:09:08;;;;;;;0.10;0.10;;;19.60;49.80;;;;;;5031822;28;20554;-57
2023/10/09 01:11:47;;;;;;;0.00;0.00;;;19.60;49.80;;;;;;5031436;28;20597;-58
2023/10/09 01:14:21;;;;;;;0.00;0.00;;;19.60;49.70;;;;;;5031489;28;20277;-56
2023/10/09 01:16:54;;;;;;;0.00;0.00;;;19.70;49.80;;;;;;5031972;28;20282;-54
2023/10/09 01:19:27;;;;;;;0.10;0.10;;;19.70;49.90;;;;;;5032085;28;20200;-54
2023/10/09 01:22:04;;;;;;;0.10;0.10;;;19.70;50.00;;;;;;5032942;28;20590;-57
2023/10/09 01:24:38;;;;;;;0.00;0.00;;;19.80;50.00;;;;;;5031890;28;20629;-54
2023/10/09 01:27:14;;;;;;;0.00;0.00;;;19.80;50.00;;;;;;5031781;28;20623;-56
2023/10/09 01:29:46;;;;;;;0.10;0.10;;;19.90;50.10;;;;;;5032052;28;20222;-58
2023/10/09 01:32:19;;;;;;;0.03;0.03;;;19.90;50.20;;;;;;5032195;28;20235;-58
2023/10/09 01:34:50;;;;;;;0.00;0.00;;;19.90;50.20;;;;;;5031868;28;20599;-54
2023/10/09 01:37:22;;;;;;;0.00;0.00;;;19.90;50.10;;;;;;5031569;28;20583;-53
2023/10/09 01:39:58;;;;;;;0.10;0.10;;;20.00;50.00;;;;;;5031546;28;20540;-57
2023/10/09 01:42:34;;;;;;;0.10;0.10;;;20.00;49.90;;;;;;5011431;28;20616;-48
2023/10/09 01:45:26;;;;;;;0.00;0.00;;;20.10;49.90;;;;;;5011235;28;20636;-54
2023/10/09 01:47:58;;;;;;;0.10;0.10;;;20.10;49.90;;;;;;5027070;28;20285;-56
2023/10/09 01:50:31;;;;;;;0.00;0.00;;;20.20;50.00;;;;;;5031402;28;20534;-54
2023/10/09 01:53:02;;;;;;;0.10;0.10;;;20.20;50.00;;;;;;5031539;28;20224;-54
2023/10/09 01:55:39;;;;;;;0.10;0.10;;;20.30;50.00;;;;;;5031754;28;20228;-54
2023/10/09 01:58:17;;;;;;;0.10;0.10;;;20.30;50.00;;;;;;5032085;28;20196;-54
2023/10/09 02:00:54;;;;;;;0.10;0.10;;;20.30;50.00;;;;;;5031605;28;20601;-57
2023/10/09 02:03:29;;;;;;;0.08;0.08;;;20.40;50.10;;;;;;5030980;28;20675;-58
2023/10/09 02:06:02;;;;;;;0.10;0.10;;;20.40;50.10;;;;;;5029540;28;20257;-54
2023/10/09 02:08:35;;;;;;;0.10;0.10;;;20.40;50.10;;;;;;5031506;28;20200;-58
2023/10/09 02:11:14;;;;;;;0.10;0.10;;;20.50;50.20;;;;;;5031854;28;20649;-55
2023/10/09 02:13:47;;;;;;;0.20;0.20;;;20.50;50.30;;;;;;5031319;28;20627;-52
2023/10/09 02:16:28;;;;;;;0.10;0.10;;;20.50;50.30;;;;;;5031373;28;20559;-56
2023/10/09 02:18:59;;;;;;;0.10;0.10;;;20.60;50.30;;;;;;5031190;28;20608;-53
2023/10/09 02:21:39;;;;;;;0.00;0.00;;;20.60;50.20;;;;;;5031983;28;20196;-57
2023/10/09 02:24:26;;;;;;;0.10;0.10;;;20.60;50.00;;;;;;5030478;28;20540;-58
2023/10/09 02:27:08;;;;;;;0.10;0.10;;;20.70;50.00;;;;;;5031126;28;20721;-54
2023/10/09 02:29:42;;;;;;;0.10;0.10;;;20.70;49.80;;;;;;5030952;28;20270;-53
2023/10/09 02:32:25;;;;;;;0.10;0.10;;;20.80;49.90;;;;;;5032638;28;20611;-52
2023/10/09 02:35:02;;;;;;;0.10;0.10;;;20.90;50.00;;;;;;5035287;28;20616;-56
2023/10/09 02:37:37;;;;;;;0.10;0.10;;;20.90;50.00;;;;;;5034294;28;20595;-50
2023/10/09 02:40:15;;;;;;;0.10;0.10;;;21.00;50.70;;;;;;5032687;28;20544;-58
2023/10/09 02:42:49;;;;;;;0.10;0.10;;;21.00;50.10;;;;;;5035385;28;20349;-57
2023/10/09 02:45:28;;;;;;;0.10;0.10;;;21.00;50.20;;;;;;5035255;28;20614;-52
2023/10/09 02:48:00;;;;;;;0.00;0.00;;;21.10;50.20;;;;;;5035249;28;20228;-53
2023/10/09 02:50:34;;;;;;;0.10;0.10;;;21.10;50.20;;;;;;5034498;28;20271;-53
2023/10/09 02:53:09;;;;;;;0.00;0.00;;;21.20;50.30;;;;;;5035006;28;20524;-54
2023/10/09 02:55:42;;;;;;;0.10;0.10;;;21.20;50.30;;;;;;5034894;28;20258;-56
2023/10/09 02:58:21;;;;;;;0.00;0.00;;;21.30;50.20;;;;;;5034543;28;20250;-45
2023/10/09 03:00:52;;;;;;;0.00;0.00;;;21.30;50.20;;;;;;5034624;28;20629;-53
2023/10/09 03:03:23;;;;;;;0.00;0.00;;;21.40;50.10;;;;;;5035042;28;20263;-52
2023/10/09 03:05:55;;;;;;;0.10;0.10;;;21.40;50.00;;;;;;5034818;28;20663;-53
2023/10/09 03:08:26;;;;;;;0.10;0.10;;;21.40;50.00;;;;;;5034641;28;20222;-56
2023/10/09 03:11:00;;;;;;;0.00;0.00;;;21.50;50.00;;;;;;5034733;28;20682;-54
2023/10/09 03:13:35;;;;;;;0.10;0.10;;;21.60;49.90;;;;;;5034366;28;20604;-51
2023/10/09 03:16:06;;;;;;;0.10;0.10;;;21.60;49.90;;;;;;5034461;28;20282;-49
2023/10/09 03:18:37;;;;;;;0.10;0.10;;;21.70;49.90;;;;;;5034809;28;20337;-55
2023/10/09 03:21:09;;;;;;;0.05;0.05;;;21.70;49.90;;;;;;5034625;28;20218;-52
2023/10/09 03:23:41;;;;;;;0.10;0.10;;;21.80;49.90;;;;;;5034527;28;20291;-57
2023/10/09 03:26:12;;;;;;;0.10;0.10;;;21.80;49.90;;;;;;5034051;28;20218;-56
2023/10/09 03:28:45;;;;;;;0.00;0.00;;;21.90;49.90;;;;;;5034652;28;20250;-52
2023/10/09 03:31:16;;;;;;;0.00;0.00;;;21.90;49.80;;;;;;5034360;28;20214;-57
2023/10/09 03:33:47;;;;;;;0.00;0.00;;;22.00;49.70;;;;;;5033918;28;20567;-55
2023/10/09 03:36:19;;;;;;;0.10;0.10;;;22.00;49.70;;;;;;5032979;28;20204;-57
2023/10/09 03:38:54;;;;;;;0.10;0.10;;;22.10;49.70;;;;;;5033303;28;20378;-54
2023/10/09 03:41:26;;;;;;;0.10;0.10;;;22.10;49.70;;;;;;5033694;28;20596;-57
2023/10/09 03:43:59;;;;;;;0.00;0.00;;;22.20;49.70;;;;;;5033437;28;20565;-55
2023/10/09 03:46:32;;;;;;;0.10;0.10;;;22.20;49.70;;;;;;5018909;28;20631;-53
2023/10/09 03:49:10;;;;;;;0.10;0.10;;;22.20;49.50;;;;;;5033673;28;20196;-51
2023/10/09 03:51:42;;;;;;;0.08;0.08;;;22.30;49.60;;;;;;5034238;28;20270;-52
2023/10/09 03:54:13;;;;;;;0.10;0.10;;;22.30;49.40;;;;;;5033612;28;20303;-52
2023/10/09 03:56:44;;;;;;;0.00;0.00;;;22.40;49.40;;;;;;5033587;28;20550;-57
2023/10/09 03:59:19;;;;;;;0.10;0.10;;;22.40;49.40;;;;;;5032981;28;20532;-57
2023/10/09 04:01:53;;;;;;;0.00;0.00;;;22.40;49.30;;;;;;5033636;28;20312;-56
2023/10/09 04:04:24;;;;;;;0.10;0.10;;;22.50;49.30;;;;;;5033053;28;20580;-54
2023/10/09 04:06:56;;;;;;;0.10;0.10;;;22.50;49.20;;;;;;5033411;28;20261;-56
2023/10/09 04:09:39;;;;;;;0.10;0.10;;;22.60;49.20;;;;;;5033639;28;20305;-56
2023/10/09 04:12:24;;;;;;;0.10;0.10;;;22.60;49.20;;;;;;5033472;28;20267;-55
2023/10/09 04:15:01;;;;;;;0.10;0.10;;;22.70;49.20;;;;;;5033209;28;20684;-55
2023/10/09 04:17:35;;;;;;;0.00;0.00;;;22.70;49.10;;;;;;5033370;28;20266;-55
2023/10/09 04:22:59;;;;;;;0.00;0.00;;;22.80;49.00;;;;;;5033844;28;20261;-53
2023/10/09 04:25:41;;;;;;;0.00;0.00;;;22.80;49.00;;;;;;5032454;28;20293;-58
2023/10/09 04:28:18;;;;;;;0.00;0.00;;;22.90;49.00;;;;;;5032773;28;20601;-56
2023/10/09 04:30:55;;;;;;;0.00;0.00;;;22.90;48.90;;;;;;5013311;28;20298;-54
2023/10/09 04:33:42;;;;;;;0.08;0.08;;;22.90;48.90;;;;;;5013334;28;20208;-56
2023/10/09 04:36:22;;;;;;;0.10;0.10;;;23.00;48.90;;;;;;5013146;28;20279;-53
2023/10/09 04:42:18;;;;;;;0.05;0.05;;;23.00;48.70;;;;;;5012916;28;20203;-53
2023/10/09 04:44:59;;;;;;;0.00;0.00;;;23.00;48.70;;;;;;5020057;28;20234;-51
2023/10/09 04:47:38;;;;;;;0.08;0.08;;;23.10;48.60;;;;;;5032324;28;20208;-52
2023/10/09 04:50:11;;;;;;;0.10;0.10;;;23.10;48.50;;;;;;5032163;28;20196;-47
2023/10/09 04:52:53;;;;;;;0.00;0.00;;;23.20;48.50;;;;;;5032443;28;20698;-55
2023/10/09 04:55:27;;;;;;;0.00;0.00;;;23.20;48.50;;;;;;5031533;28;20220;-57
2023/10/09 04:58:09;;;;;;;0.00;0.00;;;23.30;48.50;;;;;;5031891;28;20614;-55
2023/10/09 05:01:04;;;;;;;0.10;0.10;;;23.30;48.40;;;;;;5032364;28;20601;-57
2023/10/09 05:03:53;;;;;;;0.00;0.00;;;23.30;48.40;;;;;;5032700;28;20594;-52
2023/10/09 05:09:13;;;;;;;0.05;0.05;;;23.40;48.30;;;;;;5030695;28;20283;-58
2023/10/09 05:12:09;;;;;;;0.00;0.00;;;23.40;48.30;;;;;;5032204;28;20538;-56
2023/10/09 05:14:45;;;;;;;0.00;0.00;;;23.50;48.30;;;;;;5032229;28;20569;-50
2023/10/09 05:17:17;;;;;;;0.03;0.03;;;23.50;48.80;;;;;;5031868;28;20640;-54
2023/10/09 05:22:56;;;;;;;0.00;0.00;;;23.60;48.10;;;;;;5032169;28;20199;-56
2023/10/09 05:28:30;;;;;;;0.08;0.08;;;23.60;48.10;;;;;;4995591;28;20195;-57
2023/10/09 05:31:07;;;;;;;0.00;0.00;;;23.70;48.10;;;;;;5031027;28;20215;-56
2023/10/09 05:33:39;;;;;;;0.00;0.00;;;23.70;48.00;;;;;;5031682;28;20298;-58
2023/10/09 05:36:31;;;;;;;0.10;0.10;;;23.80;48.10;;;;;;5030994;28;20235;-57
2023/10/09 05:39:22;;;;;;;0.00;0.00;;;23.80;48.10;;;;;;5031500;28;20552;-57
2023/10/09 05:41:59;;;;;;;0.10;0.10;;;23.80;48.10;;;;;;5032246;28;20275;-57
2023/10/09 05:47:37;;;;;;;0.00;0.00;;;23.80;48.10;;;;;;5031715;28;20207;-57
2023/10/09 05:53:33;;;;;;;0.10;0.10;;;23.90;48.10;;;;;;5031146;28;20199;-56
2023/10/09 06:04:33;;;;;;;0.00;0.00;;;23.80;48.10;;;;;;5031159;28;20269;-51
2023/10/09 06:07:13;;;;;;;0.10;0.10;;;23.80;48.10;;;;;;5031279;28;20604;-57
2023/10/09 06:09:52;;;;;;;0.00;0.00;;;23.80;48.10;;;;;;5030791;28;20622;-59
2023/10/09 06:15:51;;;;;;;0.00;0.00;;;23.80;48.10;;;;;;5031131;28;20215;-57
2023/10/09 06:21:39;;;;;;;0.10;0.10;;;23.80;47.90;;;;;;5030070;28;20196;-52
2023/10/09 06:24:15;;;;;;;0.00;0.00;;;23.80;47.80;;;;;;5031519;28;20208;-56
2023/10/09 06:29:50;;;;;;;0.00;0.00;;;23.80;47.50;;;;;;5031677;28;20194;-57
2023/10/09 06:32:37;;;;;;;0.00;0.00;;;23.80;47.50;;;;;;5031449;28;20196;-57
2023/10/09 06:35:18;;;;;;;0.00;0.00;;;23.80;47.30;;;;;;5030955;28;20316;-54
2023/10/09 06:43:31;;;;;;;0.10;0.10;;;23.70;46.90;;;;;;5031466;28;20234;-55
2023/10/09 06:48:57;;;;;;;0.00;0.00;;;23.70;46.80;;;;;;5028073;28;20199;-53
2023/10/09 06:51:44;;;;;;;0.00;0.00;;;23.60;46.70;;;;;;5011421;28;20215;-54
2023/10/09 06:54:16;;;;;;;0.10;0.10;;;23.60;46.70;;;;;;5011320;28;20558;-54
2023/10/09 07:00:51;;;;;;;0.10;0.10;;;23.60;46.60;;;;;;5011448;28;20298;-50
2023/10/09 07:02:45;;;;;;;0.10;0.10;;;23.50;46.50;;;;;;5011144;28;20188;-47
2023/10/09 07:05:17;;;;;;;0.10;0.10;;;23.60;46.50;;;;;;5010921;28;20580;-55
2023/10/09 07:07:55;;;;;;;0.00;0.00;;;23.50;46.40;;;;;;5010667;28;20605;-52
2023/10/09 07:10:39;;;;;;;0.10;0.10;;;23.50;46.40;;;;;;5010692;28;20597;-51
2023/10/09 07:13:11;;;;;;;0.10;0.10;;;23.50;46.20;;;;;;5011476;28;20201;-51
2023/10/09 07:18:49;;;;;;;0.05;0.05;;;23.40;46.00;;;;;;5012825;28;20215;-51
2023/10/09 07:21:27;;;;;;;0.00;0.00;;;23.40;46.00;;;;;;5014354;28;20240;-45
2023/10/09 07:24:14;;;;;;;0.10;0.10;;;23.40;45.90;;;;;;5022116;28;20800;-50
2023/10/09 07:26:52;;;;;;;0.10;0.10;;;23.30;45.90;;;;;;5034270;28;20647;-55
2023/10/09 07:29:24;;;;;;;0.10;0.10;;;23.30;45.90;;;;;;5034057;28;20357;-58
2023/10/09 07:32:12;;;;;;;0.10;0.10;;;23.30;45.90;;;;;;5034324;28;20552;-53
2023/10/09 07:34:53;;;;;;;0.00;0.00;;;23.20;45.90;;;;;;5033878;28;20291;-47
2023/10/09 07:37:30;;;;;;;0.00;0.00;;;23.20;45.90;;;;;;5034101;28;20515;-54
2023/10/09 07:40:06;;;;;;;0.05;0.05;;;23.20;45.90;;;;;;5033390;28;20614;-53
2023/10/09 07:42:45;;;;;;;0.00;0.00;;;23.10;45.90;;;;;;5033841;28;20607;-53
2023/10/09 07:48:05;;;;;;;0.10;0.10;;;23.10;45.90;;;;;;5033525;28;20192;-47
2023/10/09 07:50:48;;;;;;;0.10;0.10;;;23.10;45.90;;;;;;5033533;28;20266;-57
2023/10/09 07:53:28;;;;;;;0.10;0.10;;;23.10;45.80;;;;;;5033311;28;20210;-47
2023/10/09 07:56:06;;;;;;;0.10;0.10;;;23.00;45.80;;;;;;5033865;28;20581;-46
2023/10/09 07:58:46;;;;;;;0.00;0.00;;;23.00;45.80;;;;;;5033618;28;20548;-56
2023/10/09 08:01:36;;;;;;;0.10;0.10;;;23.00;45.80;;;;;;5033205;28;20239;-57
2023/10/09 08:04:13;;;;;;;0.10;0.10;;;22.90;45.70;;;;;;5012918;28;20235;-50
2023/10/09 08:06:44;;;;;;;0.00;0.00;;;22.90;45.70;;;;;;5013869;28;20663;-55
2023/10/09 08:12:39;;;;;;;0.10;0.10;;;22.80;45.60;;;;;;5010201;28;20189;-50
2023/10/09 08:15:26;;;;;;;0.10;0.10;;;22.80;42.50;;;;;;5013090;28;20223;-53
2023/10/09 08:18:03;;;;;;;0.00;0.00;;;22.60;40.20;;;;;;5029932;28;20668;-53
2023/10/09 08:20:51;;;;;;;0.10;0.10;;;22.40;39.80;;;;;;5031766;28;20259;-55
2023/10/09 08:23:28;;;;;;;0.10;0.10;;;22.30;40.00;;;;;;5031804;28;20547;-53
2023/10/09 08:26:13;;;;;;;0.00;0.00;;;22.20;40.30;;;;;;5030571;28;20567;-48
2023/10/09 08:28:45;;;;;;;0.10;0.10;;;22.10;40.60;;;;;;5029376;28;20616;-54
2023/10/09 08:34:09;;;;;;;0.10;0.10;;;22.00;41.10;;;;;;5030094;28;20206;-51
2023/10/09 08:36:49;;;;;;;0.10;0.10;;;22.00;41.40;;;;;;5029719;28;20192;-57
2023/10/09 08:39:25;;;;;;;0.00;0.00;;;22.00;41.40;;;;;;5023020;28;20267;-54
2023/10/09 08:41:58;;;;;;;0.10;0.10;;;21.90;41.50;;;;;;5031910;28;20217;-56
2023/10/09 08:44:31;;;;;;;0.10;0.10;;;21.90;41.50;;;;;;5041689;28;20242;-56
2023/10/09 08:47:03;;;;;;;0.10;0.10;;;21.90;41.60;;;;;;5042395;28;20615;-51
2023/10/09 08:49:35;;;;;;;0.10;0.10;;;21.90;41.70;;;;;;5026520;28;20193;-57
2023/10/09 08:52:10;;;;;;;0.10;0.10;;;21.90;41.80;;;;;;5028186;28;20544;-52
2023/10/09 08:54:42;;;;;;;0.10;0.10;;;21.90;41.90;;;;;;5030196;28;20215;-52
2023/10/09 08:57:13;;;;;;;0.10;0.10;;;21.80;41.90;;;;;;5032667;28;20304;-53
2023/10/09 08:59:45;;;;;;;0.03;0.03;;;21.80;42.00;;;;;;5032472;28;20300;-55
2023/10/09 09:02:17;;;;;;;0.00;0.00;;;21.80;42.10;;;;;;5031476;28;20200;-54
2023/10/09 09:04:50;;;;;;;0.10;0.10;;;21.80;42.20;;;;;;5029470;28;20536;-56
2023/10/09 09:07:33;;;;;;;0.10;0.10;;;21.80;42.30;;;;;;5031759;28;20533;-54
2023/10/09 09:10:17;;;;;;;0.00;0.00;;;21.70;42.30;;;;;;5032231;28;20583;-48
2023/10/09 09:12:53;;;;;;;0.00;0.00;;;21.70;42.50;;;;;;5031279;28;20539;-56
2023/10/09 09:15:26;;;;;;;0.10;0.10;;;21.70;42.50;;;;;;5030397;28;20572;-47
2023/10/09 09:18:11;;;;;;;0.05;0.05;;;21.70;42.60;;;;;;5031097;28;20530;-54
2023/10/09 09:20:45;;;;;;;0.10;0.10;;;21.70;42.70;;;;;;5031673;28;20549;-53
2023/10/09 09:23:23;;;;;;;0.00;0.00;;;21.70;42.70;;;;;;5031548;28;20192;-54
2023/10/09 09:25:59;;;;;;;0.10;0.10;;;21.70;42.80;;;;;;5030668;28;20277;-52
2023/10/09 09:28:38;;;;;;;0.00;0.00;;;21.70;42.80;;;;;;5031614;28;20313;-55
2023/10/09 09:31:15;;;;;;;0.08;0.08;;;21.70;42.80;;;;;;5023083;28;20200;-51
2023/10/09 09:33:48;;;;;;;0.10;0.10;;;21.60;42.80;;;;;;5013962;28;20219;-54
2023/10/09 09:36:20;;;;;;;0.00;0.00;;;21.70;42.90;;;;;;5031776;28;20273;-56
2023/10/09 09:39:01;;;;;;;0.10;0.10;;;21.60;42.90;;;;;;5033967;28;20344;-54
2023/10/09 09:41:33;;;;;;;0.00;0.00;;;21.60;43.00;;;;;;5050904;28;20574;-53
2023/10/09 09:44:05;;;;;;;0.10;0.10;;;21.50;42.90;;;;;;5048354;28;20203;-55
2023/10/09 09:46:37;;;;;;;0.05;0.05;;;21.50;43.00;;;;;;5016851;28;20230;-47
2023/10/09 09:49:16;;;;;;;0.10;0.10;;;21.50;43.10;;;;;;5030572;28;20267;-56
2023/10/09 09:51:48;;;;;;;0.10;0.10;;;21.50;43.80;;;;;;5030354;28;20196;-54
2023/10/09 09:54:22;;;;;;;0.00;0.00;;;21.50;43.20;;;;;;5031076;28;20373;-54
2023/10/09 09:56:56;;;;;;;0.10;0.10;;;21.50;43.30;;;;;;5030979;28;20246;-52
2023/10/09 09:59:35;;;;;;;0.10;0.10;;;21.50;43.30;;;;;;5024396;28;20188;-51
2023/10/09 10:02:08;;;;;;;0.05;0.05;;;21.40;43.30;;;;;;5029958;28;20195;-54
2023/10/09 10:04:42;;;;;;;0.10;0.10;;;21.40;43.40;;;;;;5030862;28;20220;-57
2023/10/09 10:07:16;;;;;;;0.10;0.10;;;21.40;43.40;;;;;;5031187;28;20571;-56
2023/10/09 10:09:54;;;;;;;0.10;0.10;;;21.40;43.40;;;;;;5029935;28;20597;-50
2023/10/09 10:13:02;;;;;;;0.00;0.00;;;21.40;43.50;;;;;;5019810;28;20583;-54
2023/10/09 10:16:12;;;;;;;0.00;0.00;;;21.30;43.50;;;;;;5026000;28;20230;-53
2023/10/09 10:19:06;;;;;;;0.05;0.05;;;21.30;43.40;;;;;;5029918;28;20261;-49
2023/10/09 10:21:49;;;;;;;0.10;0.10;;;21.30;43.50;;;;;;5028830;28;20192;-50
2023/10/09 10:24:54;;;;;;;0.10;0.10;;;21.30;43.50;;;;;;5028890;28;20543;-55
2023/10/09 10:27:31;;;;;;;0.08;0.08;;;21.20;43.50;;;;;;5029502;28;20547;-56
2023/10/09 10:30:37;;;;;;;0.10;0.10;;;21.20;43.60;;;;;;5029262;28;20231;-55
2023/10/09 10:33:15;;;;;;;0.00;0.00;;;21.20;43.70;;;;;;5029738;28;20214;-53
2023/10/09 10:35:52;;;;;;;0.00;0.00;;;21.20;43.70;;;;;;5030366;28;20293;-53
2023/10/09 10:38:36;;;;;;;0.10;0.10;;;21.20;43.80;;;;;;5030893;28;20582;-49
2023/10/09 10:41:22;;;;;;;0.00;0.00;;;21.10;43.80;;;;;;5031240;28;20518;-55
2023/10/09 10:44:33;;;;;;;0.00;0.00;;;21.10;43.80;;;;;;5031109;28;20599;-55
2023/10/09 10:46:53;;;;;;;0.08;0.08;;;21.10;43.80;;;;;;5030224;28;20220;-56
2023/10/09 10:49:36;;;;;;;0.00;0.00;;;21.10;43.90;;;;;;5031455;28;20192;-54
2023/10/09 10:52:18;;;;;;;0.10;0.10;;;21.10;43.90;;;;;;5031132;28;20277;-51
2023/10/09 10:55:05;;;;;;;0.03;0.03;;;21.00;43.90;;;;;;5034860;28;20763;-52
2023/10/09 10:58:00;;;;;;;0.00;0.00;;;21.00;43.90;;;;;;5034864;28;20610;-51
2023/10/09 11:03:35;;;;;;;0.00;0.00;;;21.00;43.90;;;;;;4998552;28;20253;-53
2023/10/09 11:06:15;;;;;;;0.00;0.00;;;21.00;43.90;;;;;;5034565;28;20267;-52
2023/10/09 11:08:54;;;;;;;0.03;0.03;;;20.90;44.00;;;;;;5034887;28;20192;-56
2023/10/09 11:11:32;;;;;;;0.00;0.00;;;20.90;44.00;;;;;;5034647;28;20592;-49
2023/10/09 11:14:15;;;;;;;0.00;0.00;;;20.90;44.10;;;;;;5034736;28;20606;-49
2023/10/09 11:16:49;;;;;;;0.10;0.10;;;20.80;43.90;;;;;;5034685;28;20313;-56
2023/10/09 11:19:39;;;;;;;0.05;0.05;;;20.80;44.00;;;;;;5034521;28;20246;-53
2023/10/09 11:22:28;;;;;;;0.10;0.10;;;20.80;44.10;;;;;;5035135;28;20312;-54
2023/10/09 11:25:12;;;;;;;0.00;0.00;;;20.80;44.10;;;;;;5034179;28;20429;-52
2023/10/09 11:27:50;;;;;;;0.10;0.10;;;20.80;44.10;;;;;;5034548;28;20294;-54
2023/10/09 11:30:32;;;;;;;0.10;0.10;;;20.80;44.10;;;;;;5034411;28;20227;-53
2023/10/09 11:33:16;;;;;;;0.00;0.00;;;20.70;44.10;;;;;;5034209;28;20573;-56
2023/10/09 11:35:58;;;;;;;0.10;0.10;;;20.70;44.20;;;;;;5034008;28;20606;-55
2023/10/09 11:38:37;;;;;;;0.10;0.10;;;20.70;44.20;;;;;;5033786;28;20610;-55
2023/10/09 11:41:24;;;;;;;0.00;0.00;;;20.70;44.20;;;;;;5033467;28;20527;-53
2023/10/09 11:43:57;;;;;;;0.10;0.10;;;20.70;44.20;;;;;;5033322;28;20668;-54
2023/10/09 11:46:48;;;;;;;0.00;0.00;;;20.70;44.20;;;;;;5033831;28;20599;-55
2023/10/09 11:49:26;;;;;;;0.00;0.00;;;20.70;44.10;;;;;;5034793;28;20526;-57
2023/10/09 11:54:56;;;;;;;0.00;0.00;;;20.60;44.10;;;;;;5029657;28;20248;-56
2023/10/09 11:57:33;;;;;;;0.05;0.05;;;20.60;44.10;;;;;;5033305;28;20192;-55
2023/10/09 12:00:24;;;;;;;0.03;0.03;;;20.60;44.20;;;;;;5033288;28;20195;-58
2023/10/09 12:03:04;;;;;;;0.10;0.10;;;20.50;44.20;;;;;;5033430;28;20224;-56
2023/10/09 12:05:36;;;;;;;0.10;0.10;;;20.50;44.20;;;;;;5033289;28;20200;-55
2023/10/09 12:08:08;;;;;;;0.05;0.05;;;20.50;44.20;;;;;;5033315;28;20204;-54
2023/10/09 12:10:40;;;;;;;0.00;0.00;;;20.50;44.30;;;;;;5033286;28;20559;-55
2023/10/09 12:13:11;;;;;;;0.00;0.00;;;20.50;44.30;;;;;;5033689;28;20546;-56
2023/10/09 12:15:46;;;;;;;0.10;0.10;;;20.50;44.30;;;;;;5033708;28;20535;-56
2023/10/09 12:18:19;;;;;;;0.00;0.00;;;20.40;44.20;;;;;;5033729;28;20752;-53
2023/10/09 12:21:01;;;;;;;0.00;0.00;;;20.40;44.30;;;;;;5033546;28;20549;-57
2023/10/09 12:23:35;;;;;;;0.00;0.00;;;20.40;44.30;;;;;;5034183;28;20219;-49
2023/10/09 12:26:14;;;;;;;0.00;0.00;;;20.40;44.20;;;;;;5033121;28;20286;-53
2023/10/09 12:28:45;;;;;;;0.00;0.00;;;20.40;44.20;;;;;;5033514;28;20192;-51
2023/10/09 12:31:19;;;;;;;0.00;0.00;;;20.40;44.20;;;;;;5033169;28;20519;-48
2023/10/09 12:33:53;;;;;;;0.00;0.00;;;20.30;44.20;;;;;;5033276;28;20601;-50
2023/10/09 12:36:24;;;;;;;0.10;0.10;;;20.30;44.20;;;;;;5032021;28;20192;-49
2023/10/09 12:38:58;;;;;;;0.10;0.10;;;20.30;44.20;;;;;;5032728;28;20549;-55
2023/10/09 12:41:33;;;;;;;0.10;0.10;;;20.30;44.20;;;;;;5032805;28;20550;-57
2023/10/09 12:44:04;;;;;;;0.05;0.05;;;20.30;44.20;;;;;;5032890;28;20290;-56
2023/10/09 12:46:37;;;;;;;0.15;0.15;;;20.30;44.80;;;;;;5032531;28;20220;-53
2023/10/09 12:49:10;;;;;;;0.10;0.10;;;20.30;44.30;;;;;;5032873;28;20550;-52
2023/10/09 12:51:42;;;;;;;0.10;0.10;;;20.20;44.30;;;;;;5013177;28;20553;-49
2023/10/09 12:54:14;;;;;;;0.10;0.10;;;20.20;44.30;;;;;;5012243;28;20361;-55
2023/10/09 12:56:48;;;;;;;0.00;0.00;;;20.20;44.30;;;;;;5012607;28;20215;-49
2023/10/09 12:59:20;;;;;;;0.10;0.10;;;20.20;44.30;;;;;;5012743;28;20275;-55
2023/10/09 13:01:52;;;;;;;0.00;0.00;;;20.20;44.40;;;;;;5012677;28;20280;-57
2023/10/09 13:04:31;;;;;;;0.00;0.00;;;20.20;44.30;;;;;;5012545;28;20261;-52
2023/10/09 13:07:06;;;;;;;0.10;0.10;;;20.20;44.30;;;;;;5012877;28;20224;-55
2023/10/09 13:09:42;;;;;;;0.10;0.10;;;20.20;44.30;;;;;;5012734;28;20590;-55
2023/10/09 13:12:17;;;;;;;0.10;0.10;;;20.20;44.30;;;;;;5012757;28;20542;-57
2023/10/09 13:14:49;;;;;;;0.08;0.08;;;20.10;44.20;;;;;;5012332;28;20579;-50
2023/10/09 13:17:21;;;;;;;0.10;0.10;;;20.10;44.20;;;;;;5023781;28;20196;-53
2023/10/09 13:19:56;;;;;;;0.10;0.10;;;20.10;44.20;;;;;;5032120;28;20595;-55
2023/10/09 13:22:27;;;;;;;0.10;0.10;;;20.10;44.20;;;;;;5032756;28;20602;-45
2023/10/09 13:25:04;;;;;;;0.10;0.10;;;20.10;44.30;;;;;;5032094;28;20613;-48
2023/10/09 13:27:38;;;;;;;0.00;0.00;;;20.10;44.20;;;;;;5031794;28;20679;-53
2023/10/09 13:30:21;;;;;;;0.10;0.10;;;20.00;44.20;;;;;;5031870;28;20274;-55
2023/10/09 13:32:53;;;;;;;0.00;0.00;;;20.00;44.20;;;;;;5031987;28;20591;-57
2023/10/09 13:35:37;;;;;;;0.10;0.10;;;20.00;44.20;;;;;;5031506;28;20204;-53
2023/10/09 13:38:09;;;;;;;0.00;0.00;;;20.00;44.30;;;;;;5032203;28;20199;-57
2023/10/09 13:40:41;;;;;;;0.10;0.10;;;20.00;44.30;;;;;;5031620;28;20512;-55
2023/10/09 13:43:16;;;;;;;0.10;0.10;;;20.00;44.30;;;;;;5031843;28;20212;-56
2023/10/09 13:45:49;;;;;;;0.00;0.00;;;20.00;44.30;;;;;;5031533;28;20214;-55
2023/10/09 13:48:20;;;;;;;0.00;0.00;;;20.00;44.40;;;;;;5011882;28;20216;-52
2023/10/09 13:51:07;;;;;;;0.00;0.00;;;20.00;44.30;;;;;;5012142;28;20539;-54
2023/10/09 13:53:44;;;;;;;0.10;0.10;;;19.90;44.30;;;;;;5012026;28;20326;-54
2023/10/09 13:56:18;;;;;;;0.10;0.10;;;19.90;44.30;;;;;;5011758;28;20629;-48
2023/10/09 13:58:51;;;;;;;0.10;0.10;;;19.90;44.30;;;;;;5011692;28;20192;-56
2023/10/09 14:01:28;;;;;;;0.10;0.10;;;19.90;44.30;;;;;;5011634;28;20197;-52
2023/10/09 14:04:00;;;;;;;0.10;0.10;;;19.90;44.30;;;;;;5011461;28;20216;-56
2023/10/09 14:06:34;;;;;;;0.10;0.10;;;19.90;44.30;;;;;;5011353;28;20189;-50
2023/10/09 14:09:09;;;;;;;0.03;0.03;;;19.90;44.30;;;;;;5029645;28;20291;-53
2023/10/09 14:11:44;;;;;;;0.03;0.03;;;19.80;44.30;;;;;;5030809;28;20596;-53
2023/10/09 14:14:16;;;;;;;0.00;0.00;;;19.80;44.30;;;;;;5030849;28;20567;-52
2023/10/09 14:16:47;;;;;;;0.00;0.00;;;19.80;44.30;;;;;;5031033;28;20283;-54
2023/10/09 14:19:20;;;;;;;0.10;0.10;;;19.80;44.40;;;;;;5031321;28;20643;-54
2023/10/09 14:21:59;;;;;;;0.10;0.10;;;19.80;44.30;;;;;;5031290;28;20590;-57
2023/10/09 14:24:32;;;;;;;0.00;0.00;;;19.70;44.30;;;;;;5031352;28;20267;-54
2023/10/09 14:27:06;;;;;;;0.10;0.10;;;19.70;44.30;;;;;;5031519;28;20298;-48
2023/10/09 14:29:37;;;;;;;0.10;0.10;;;19.80;44.40;;;;;;5035883;28;20614;-50
2023/10/09 14:32:12;;;;;;;0.03;0.03;;;19.70;44.30;;;;;;5035337;28;20258;-57
2023/10/09 14:34:49;;;;;;;0.10;0.10;;;19.70;44.30;;;;;;5034721;28;20340;-54
2023/10/09 14:37:23;;;;;;;0.10;0.10;;;19.70;44.40;;;;;;5034912;28;20266;-55
2023/10/09 14:39:55;;;;;;;0.00;0.00;;;19.70;44.30;;;;;;5034077;28;20214;-52
2023/10/09 14:42:27;;;;;;;0.00;0.00;;;19.70;44.30;;;;;;5034471;28;20625;-56
2023/10/09 14:44:58;;;;;;;0.10;0.10;;;19.70;44.30;;;;;;5034811;28;20638;-51
2023/10/09 14:47:30;;;;;;;0.10;0.10;;;19.70;44.30;;;;;;5034948;28;20251;-56